Time;durP1;ratioP1;P1;durP2;ratioP2;P2;SDS_P1;SDS_P2;PMS_P1;PMS_P2;Temp;Humidity;BMP_temperature;BMP_pressure;BME280_temperature;BME280_humidity;BME280_pressure;Samples;Min_cycle;Max_cycle;Signal;HPM_P1;HPM_P2
2021/12/14 00:02:27;;;;;;;15.13;12.20;;;8.60;89.80;;;;;;4999225;28;20533;-49
2021/12/14 00:04:59;;;;;;;15.40;12.60;;;8.60;89.70;;;;;;4982484;28;20459;-49
2021/12/14 00:07:26;;;;;;;17.03;12.77;;;8.60;89.60;;;;;;4995236;28;20992;-49
2021/12/14 00:10:02;;;;;;;17.33;12.70;;;8.60;89.60;;;;;;4985631;28;20500;-48
2021/12/14 00:15:04;;;;;;;21.87;14.20;;;8.60;89.50;;;;;;4998636;28;20614;-48
2021/12/14 00:17:50;;;;;;;16.27;12.60;;;8.60;89.70;;;;;;4987007;28;20449;-49
2021/12/14 00:20:22;;;;;;;15.67;12.17;;;8.60;89.60;;;;;;4998576;28;20812;-49
2021/12/14 00:25:26;;;;;;;17.67;12.47;;;8.60;89.80;;;;;;4995658;28;20460;-49
2021/12/14 00:27:54;;;;;;;17.10;12.10;;;8.60;89.80;;;;;;5000845;28;20464;-48
2021/12/14 00:30:21;;;;;;;17.60;14.93;;;8.60;89.80;;;;;;4984201;28;20514;-49
2021/12/14 00:32:48;;;;;;;16.30;12.60;;;8.60;89.70;;;;;;4985469;28;20452;-49
2021/12/14 00:35:15;;;;;;;14.80;12.63;;;8.60;89.70;;;;;;4993208;28;20472;-49
2021/12/14 00:37:49;;;;;;;16.53;13.00;;;8.60;89.80;;;;;;4971564;28;20949;-49
2021/12/14 00:40:18;;;;;;;14.93;13.00;;;8.60;89.80;;;;;;4997948;28;20454;-48
2021/12/14 00:42:47;;;;;;;19.97;13.67;;;8.60;89.80;;;;;;4999428;28;20461;-48
2021/12/14 00:45:15;;;;;;;18.53;12.10;;;8.60;89.80;;;;;;4980304;28;20735;-49
2021/12/14 00:47:42;;;;;;;16.70;12.93;;;8.60;89.80;;;;;;4997069;28;20468;-49
2021/12/14 00:50:10;;;;;;;16.03;12.87;;;8.60;89.70;;;;;;4999357;28;20483;-48
2021/12/14 00:52:37;;;;;;;17.07;12.50;;;8.60;89.70;;;;;;4984076;28;20815;-49
2021/12/14 00:55:07;;;;;;;15.67;12.10;;;8.60;89.70;;;;;;4999424;28;20523;-49
2021/12/14 00:57:36;;;;;;;17.37;13.17;;;8.60;89.80;;;;;;4997494;28;20958;-49
2021/12/14 01:00:16;;;;;;;17.53;13.47;;;8.60;89.80;;;;;;5005654;28;20708;-49
2021/12/14 01:02:44;;;;;;;16.13;13.50;;;8.60;89.80;;;;;;4985088;28;20452;-49
2021/12/14 01:05:18;;;;;;;16.57;12.87;;;8.60;89.80;;;;;;5001168;28;20452;-49
2021/12/14 01:07:45;;;;;;;14.90;12.50;;;8.60;89.70;;;;;;4986319;28;20457;-49
2021/12/14 01:10:26;;;;;;;14.00;12.27;;;8.60;89.80;;;;;;4986120;28;20492;-49
2021/12/14 01:12:58;;;;;;;18.10;14.90;;;8.60;89.80;;;;;;5004331;28;20532;-49
2021/12/14 01:15:42;;;;;;;19.43;13.30;;;8.50;89.80;;;;;;5004661;28;20995;-49
2021/12/14 01:18:30;;;;;;;16.23;12.90;;;8.50;89.80;;;;;;4989398;28;20456;-48
2021/12/14 01:24:23;;;;;;;18.27;12.23;;;8.50;89.80;;;;;;4998306;28;20472;-49
2021/12/14 01:26:51;;;;;;;19.43;13.97;;;8.60;89.80;;;;;;5002780;28;20548;-49
2021/12/14 01:29:19;;;;;;;17.10;14.20;;;8.60;89.80;;;;;;5000722;28;20488;-49
2021/12/14 01:31:48;;;;;;;16.87;13.67;;;8.50;89.80;;;;;;4993005;28;20494;-49
2021/12/14 01:34:22;;;;;;;18.90;12.60;;;8.50;89.80;;;;;;4987850;28;20628;-49
2021/12/14 01:36:55;;;;;;;14.73;12.73;;;8.50;89.80;;;;;;4986632;28;20488;-49
2021/12/14 01:42:21;;;;;;;13.87;11.90;;;8.50;89.80;;;;;;5004168;28;20456;-49
2021/12/14 01:44:49;;;;;;;18.07;14.00;;;8.50;89.70;;;;;;4988253;28;20971;-49
2021/12/14 01:47:34;;;;;;;19.57;12.80;;;8.50;89.70;;;;;;5001180;28;20968;-49
2021/12/14 01:50:02;;;;;;;14.67;12.60;;;8.50;89.80;;;;;;4982673;28;21061;-49
2021/12/14 01:52:32;;;;;;;15.60;12.33;;;8.50;89.80;;;;;;5001540;28;20455;-49
2021/12/14 01:55:06;;;;;;;18.10;13.97;;;8.40;89.80;;;;;;5000185;28;20467;-49
2021/12/14 01:57:34;;;;;;;16.30;13.47;;;8.50;89.80;;;;;;4989142;28;20453;-49
2021/12/14 02:00:05;;;;;;;14.97;11.80;;;8.50;89.80;;;;;;5002499;28;20480;-49
2021/12/14 02:02:44;;;;;;;15.40;12.67;;;8.50;89.80;;;;;;4985566;28;20468;-49
2021/12/14 02:05:20;;;;;;;20.77;13.57;;;8.50;89.80;;;;;;4991137;28;20460;-49
2021/12/14 02:07:48;;;;;;;16.57;13.10;;;8.50;89.80;;;;;;4999585;28;20460;-49
2021/12/14 02:10:25;;;;;;;17.73;13.70;;;8.50;89.80;;;;;;5003140;28;21035;-49
2021/12/14 02:12:53;;;;;;;19.83;14.90;;;8.50;89.80;;;;;;5000090;28;20460;-49
2021/12/14 02:15:31;;;;;;;16.57;12.83;;;8.50;89.80;;;;;;4987990;28;20600;-49
2021/12/14 02:18:00;;;;;;;17.90;15.13;;;8.50;89.80;;;;;;4984618;28;20467;-49
2021/12/14 02:20:31;;;;;;;15.80;13.33;;;8.50;89.80;;;;;;4985733;28;20559;-48
2021/12/14 02:22:59;;;;;;;14.37;12.20;;;8.50;89.80;;;;;;5004074;28;20468;-49
2021/12/14 02:25:26;;;;;;;15.70;12.90;;;8.50;89.80;;;;;;5002495;28;20451;-49
2021/12/14 02:27:55;;;;;;;21.13;13.67;;;8.40;89.80;;;;;;4970984;28;20465;-49
2021/12/14 02:30:26;;;;;;;13.97;12.00;;;8.40;89.80;;;;;;4988156;28;20997;-52
2021/12/14 02:32:54;;;;;;;18.10;13.60;;;8.40;89.80;;;;;;4998875;28;20495;-49
2021/12/14 02:35:27;;;;;;;17.93;16.03;;;8.50;89.80;;;;;;4997124;28;20472;-49
2021/12/14 02:38:00;;;;;;;25.30;16.47;;;8.50;89.80;;;;;;5001963;28;20861;-49
2021/12/14 02:40:53;;;;;;;15.33;13.53;;;8.50;89.80;;;;;;5002985;28;20456;-49
2021/12/14 02:43:42;;;;;;;18.40;12.93;;;8.50;89.80;;;;;;4999628;28;20807;-49
2021/12/14 02:46:20;;;;;;;16.93;12.50;;;8.50;89.80;;;;;;4985263;28;21019;-49
2021/12/14 02:48:56;;;;;;;19.87;13.63;;;8.60;89.70;;;;;;4990612;28;20510;-49
2021/12/14 02:51:27;;;;;;;15.90;13.53;;;8.60;89.50;;;;;;4984810;28;21017;-49
2021/12/14 02:54:08;;;;;;;17.33;12.33;;;8.60;89.60;;;;;;5003425;28;20469;-49
2021/12/14 02:56:36;;;;;;;18.23;13.40;;;8.60;89.60;;;;;;4987282;28;20448;-49
2021/12/14 02:59:17;;;;;;;17.07;12.60;;;8.50;89.80;;;;;;4984649;28;20848;-49
2021/12/14 03:01:46;;;;;;;15.03;12.40;;;8.50;89.80;;;;;;4998339;28;20666;-49
2021/12/14 03:04:14;;;;;;;16.57;12.73;;;8.50;89.80;;;;;;4997483;28;20468;-49
2021/12/14 03:06:49;;;;;;;15.63;12.90;;;8.40;89.80;;;;;;4996995;28;20472;-49
2021/12/14 03:12:14;;;;;;;18.20;13.67;;;8.40;89.80;;;;;;4998397;28;20491;-48
2021/12/14 03:14:48;;;;;;;16.37;12.70;;;8.40;89.80;;;;;;4999085;28;20978;-49
2021/12/14 03:17:15;;;;;;;18.70;12.90;;;8.40;89.80;;;;;;4986222;28;20456;-49
2021/12/14 03:19:42;;;;;;;17.00;12.80;;;8.40;89.80;;;;;;5000940;28;20465;-49
2021/12/14 03:22:55;;;;;;;18.83;12.80;;;8.40;89.80;;;;;;4970979;28;20479;-49
2021/12/14 03:25:22;;;;;;;19.83;12.70;;;8.40;89.80;;;;;;4991974;28;20533;-47
2021/12/14 03:27:51;;;;;;;16.87;12.70;;;8.40;89.80;;;;;;4996631;28;20479;-47
2021/12/14 03:30:43;;;;;;;17.73;12.77;;;8.40;89.80;;;;;;5000051;28;20497;-47
2021/12/14 03:33:18;;;;;;;16.50;13.07;;;8.40;89.80;;;;;;4996446;28;20468;-47
2021/12/14 03:35:59;;;;;;;19.17;14.33;;;8.40;89.80;;;;;;5002180;28;20460;-47
2021/12/14 03:38:43;;;;;;;19.70;14.40;;;8.40;89.80;;;;;;5001066;28;20453;-47
2021/12/14 03:41:51;;;;;;;17.60;14.50;;;8.40;89.80;;;;;;4982483;28;20463;-47
2021/12/14 03:44:21;;;;;;;24.43;15.93;;;8.40;89.80;;;;;;4972378;28;20469;-47
2021/12/14 03:47:08;;;;;;;20.00;14.63;;;8.40;89.80;;;;;;5001169;28;20462;-47
2021/12/14 03:49:40;;;;;;;21.83;15.80;;;8.40;89.80;;;;;;4985796;28;20468;-47
2021/12/14 03:52:11;;;;;;;20.30;15.90;;;8.40;89.80;;;;;;4995177;28;20511;-47
2021/12/14 03:54:39;;;;;;;23.10;16.57;;;8.40;89.80;;;;;;5000376;28;20460;-47
2021/12/14 03:57:07;;;;;;;26.70;17.90;;;8.40;89.80;;;;;;5000478;28;20468;-47
2021/12/14 03:59:35;;;;;;;20.53;16.40;;;8.40;89.80;;;;;;4999956;28;21297;-49
2021/12/14 04:02:04;;;;;;;28.10;18.47;;;8.40;89.80;;;;;;4999179;28;20845;-49
2021/12/14 04:04:36;;;;;;;25.57;19.07;;;8.40;89.80;;;;;;4999876;28;20615;-49
2021/12/14 04:07:06;;;;;;;25.97;18.43;;;8.50;89.80;;;;;;4997851;28;20457;-49
2021/12/14 04:09:37;;;;;;;25.87;18.37;;;8.60;89.80;;;;;;4999514;28;20490;-49
2021/12/14 04:12:07;;;;;;;30.00;19.53;;;8.60;89.80;;;;;;4999027;28;20491;-49
2021/12/14 04:14:40;;;;;;;31.30;21.43;;;8.60;89.80;;;;;;4999568;28;20464;-49
2021/12/14 04:17:07;;;;;;;30.30;20.03;;;8.60;89.80;;;;;;4980681;28;20547;-49
2021/12/14 04:19:36;;;;;;;32.07;21.03;;;8.60;89.80;;;;;;4998444;28;20825;-49
2021/12/14 04:22:08;;;;;;;30.17;21.60;;;8.60;89.80;;;;;;5000512;28;20460;-49
2021/12/14 04:24:37;;;;;;;30.80;20.53;;;8.60;89.80;;;;;;4998923;28;20469;-48
2021/12/14 04:27:09;;;;;;;30.93;20.70;;;8.60;89.80;;;;;;4966057;28;20461;-49
2021/12/14 04:29:36;;;;;;;30.13;21.97;;;8.70;89.80;;;;;;4992057;28;20908;-49
2021/12/14 04:32:04;;;;;;;35.83;25.10;;;8.60;89.80;;;;;;5003217;28;20515;-49
2021/12/14 04:34:33;;;;;;;37.40;23.70;;;8.60;89.80;;;;;;4993106;28;20459;-49
2021/12/14 04:37:01;;;;;;;33.40;22.60;;;8.60;89.80;;;;;;4999595;28;20444;-49
2021/12/14 04:39:40;;;;;;;35.23;23.20;;;8.60;89.80;;;;;;5005353;28;20460;-49
2021/12/14 04:53:49;;;;;;;30.30;19.00;;;8.60;89.80;;;;;;5005480;28;20452;-48
2021/12/14 04:56:21;;;;;;;31.80;20.97;;;8.60;89.80;;;;;;5002929;28;20461;-48
2021/12/14 04:58:55;;;;;;;26.60;18.70;;;8.60;89.80;;;;;;4972403;28;20472;-48
2021/12/14 05:01:22;;;;;;;25.13;17.97;;;8.70;89.80;;;;;;5002973;28;20965;-48
2021/12/14 05:04:01;;;;;;;30.60;19.50;;;8.70;89.10;;;;;;5001144;28;20460;-48
2021/12/14 05:06:44;;;;;;;28.17;19.60;;;8.80;88.80;;;;;;4985293;28;20456;-48
2021/12/14 05:09:27;;;;;;;31.70;19.37;;;8.70;88.90;;;;;;5001179;28;20507;-48
2021/12/14 05:12:12;;;;;;;28.57;19.00;;;8.60;89.20;;;;;;4999143;28;20846;-48
2021/12/14 05:14:42;;;;;;;27.80;19.03;;;8.60;89.70;;;;;;4999414;28;20473;-48
2021/12/14 05:17:12;;;;;;;32.50;21.13;;;8.60;89.80;;;;;;5004204;28;20451;-48
2021/12/14 05:19:41;;;;;;;27.13;19.20;;;8.60;89.60;;;;;;4974307;28;21021;-48
2021/12/14 05:22:16;;;;;;;28.10;19.00;;;8.60;89.50;;;;;;4986141;28;20456;-48
2021/12/14 05:24:50;;;;;;;27.27;18.83;;;8.60;89.30;;;;;;4989651;28;20467;-48
2021/12/14 05:27:23;;;;;;;33.70;19.07;;;8.60;89.50;;;;;;4989920;28;20443;-49
2021/12/14 05:29:51;;;;;;;30.73;19.80;;;8.60;89.20;;;;;;5006168;28;20461;-49
2021/12/14 05:32:18;;;;;;;29.73;18.83;;;8.60;89.10;;;;;;5000278;28;20488;-49
2021/12/14 05:34:49;;;;;;;27.93;19.37;;;8.60;89.40;;;;;;4991330;28;20456;-49
2021/12/14 05:37:25;;;;;;;32.57;19.00;;;8.60;89.30;;;;;;5004774;28;20457;-49
2021/12/14 05:40:03;;;;;;;28.40;20.20;;;8.60;89.50;;;;;;5001683;28;20980;-49
2021/12/14 05:45:19;;;;;;;26.13;16.67;;;8.60;89.80;;;;;;5001071;28;20456;-49
2021/12/14 05:47:53;;;;;;;26.77;17.30;;;8.60;89.30;;;;;;5000919;28;20452;-49
2021/12/14 05:50:29;;;;;;;23.90;16.50;;;8.70;89.00;;;;;;5002479;28;21092;-49
2021/12/14 05:52:57;;;;;;;27.17;17.93;;;8.60;89.10;;;;;;5000740;28;20877;-49
2021/12/14 05:55:28;;;;;;;28.43;18.50;;;8.60;89.30;;;;;;5004642;28;21045;-49
2021/12/14 05:57:57;;;;;;;26.20;17.33;;;8.60;89.30;;;;;;5003085;28;20455;-49
2021/12/14 06:00:26;;;;;;;26.80;19.83;;;8.50;89.60;;;;;;5000122;28;20468;-49
2021/12/14 06:02:54;;;;;;;28.30;19.40;;;8.50;89.80;;;;;;4999767;28;20461;-49
2021/12/14 06:05:22;;;;;;;30.13;19.00;;;8.50;89.80;;;;;;4987568;28;20729;-49
2021/12/14 06:07:50;;;;;;;28.97;18.90;;;8.60;89.80;;;;;;5003266;28;20453;-49
2021/12/14 06:10:21;;;;;;;26.90;18.63;;;8.60;89.30;;;;;;5007220;28;20836;-49
2021/12/14 06:12:48;;;;;;;23.00;16.47;;;8.60;89.20;;;;;;4992742;28;20480;-49
2021/12/14 06:15:21;;;;;;;27.90;16.90;;;8.60;89.40;;;;;;5001100;28;20456;-49
2021/12/14 06:17:49;;;;;;;25.97;16.90;;;8.60;89.60;;;;;;5001188;28;20851;-49
2021/12/14 06:20:22;;;;;;;23.47;16.70;;;8.60;89.70;;;;;;5001737;28;20463;-49
2021/12/14 06:22:52;;;;;;;31.63;18.60;;;8.60;89.60;;;;;;4999648;28;20469;-49
2021/12/14 06:25:23;;;;;;;23.93;16.70;;;8.60;89.70;;;;;;5000006;28;20551;-49
2021/12/14 06:27:53;;;;;;;27.37;18.23;;;8.60;89.60;;;;;;5004403;28;21091;-50
2021/12/14 06:30:24;;;;;;;25.37;18.40;;;8.50;89.70;;;;;;4983929;28;20460;-49
2021/12/14 06:33:00;;;;;;;22.77;15.40;;;8.60;89.80;;;;;;5002064;28;20595;-49
2021/12/14 06:35:37;;;;;;;22.20;15.97;;;8.60;89.70;;;;;;4999923;28;20461;-49
2021/12/14 06:38:29;;;;;;;21.50;16.20;;;8.60;89.60;;;;;;5003407;28;20484;-49
2021/12/14 06:41:16;;;;;;;22.90;15.23;;;8.60;89.40;;;;;;5001466;28;20958;-50
2021/12/14 06:43:47;;;;;;;22.50;15.10;;;8.60;89.30;;;;;;5001749;28;20564;-49
2021/12/14 06:46:23;;;;;;;20.70;14.50;;;8.60;89.30;;;;;;4999651;28;20829;-49
2021/12/14 06:48:54;;;;;;;21.03;15.60;;;8.60;89.40;;;;;;4998355;28;20945;-49
2021/12/14 06:51:23;;;;;;;22.33;15.00;;;8.60;89.50;;;;;;4999348;28;20506;-49
2021/12/14 06:54:07;;;;;;;23.43;14.60;;;8.60;89.60;;;;;;4987380;28;20901;-49
2021/12/14 06:56:35;;;;;;;26.97;17.00;;;8.60;89.60;;;;;;4983371;28;20471;-49
2021/12/14 06:59:14;;;;;;;20.17;15.07;;;8.60;89.60;;;;;;5000877;28;20491;-49
2021/12/14 07:01:47;;;;;;;23.17;14.50;;;8.60;89.50;;;;;;4997681;28;20460;-50
2021/12/14 07:04:22;;;;;;;19.97;14.43;;;8.60;89.30;;;;;;4999537;28;20978;-49
2021/12/14 07:07:01;;;;;;;21.13;14.53;;;8.70;88.90;;;;;;4981279;28;20469;-49
2021/12/14 07:09:33;;;;;;;24.60;16.17;;;8.70;89.00;;;;;;4984576;28;20465;-49
2021/12/14 07:12:04;;;;;;;20.73;15.50;;;8.60;89.10;;;;;;4999735;28;20488;-49
2021/12/14 07:14:31;;;;;;;17.20;14.00;;;8.60;89.20;;;;;;4973286;28;20449;-49
2021/12/14 07:17:02;;;;;;;20.23;13.33;;;8.70;89.20;;;;;;5002064;28;20970;-49
2021/12/14 07:19:47;;;;;;;19.90;13.97;;;8.70;88.80;;;;;;5000398;28;20982;-50
2021/12/14 07:22:27;;;;;;;20.13;14.57;;;8.70;88.70;;;;;;4985956;28;20473;-50
2021/12/14 07:25:08;;;;;;;19.80;13.30;;;8.70;88.90;;;;;;4998941;28;20486;-50
2021/12/14 07:27:38;;;;;;;22.27;14.13;;;8.70;89.00;;;;;;5002592;28;20458;-50
2021/12/14 07:30:13;;;;;;;22.60;14.37;;;8.70;89.00;;;;;;4999954;28;20467;-50
2021/12/14 07:32:49;;;;;;;20.20;14.80;;;8.60;89.10;;;;;;5002091;28;20492;-50
2021/12/14 07:35:22;;;;;;;21.10;15.00;;;8.70;88.90;;;;;;4986385;28;20468;-50
2021/12/14 07:37:49;;;;;;;19.77;13.70;;;8.70;88.60;;;;;;5002423;28;20897;-50
2021/12/14 07:40:15;;;;;;;19.50;13.90;;;8.70;88.70;;;;;;4996498;28;20456;-50
2021/12/14 07:42:42;;;;;;;23.03;15.13;;;8.70;88.70;;;;;;4988215;28;20461;-50
2021/12/14 07:45:10;;;;;;;19.07;14.30;;;8.70;88.60;;;;;;4973606;28;20464;-50
2021/12/14 07:47:50;;;;;;;19.77;14.77;;;8.70;88.50;;;;;;4983801;28;20820;-50
2021/12/14 07:50:17;;;;;;;18.50;15.57;;;8.70;88.30;;;;;;4995815;28;20571;-50
2021/12/14 07:52:44;;;;;;;21.03;14.40;;;8.80;88.20;;;;;;5001331;28;21008;-50
2021/12/14 07:55:18;;;;;;;23.93;16.27;;;8.70;88.40;;;;;;4999436;28;20453;-50
2021/12/14 07:57:48;;;;;;;19.83;15.13;;;8.70;88.50;;;;;;4997983;28;20452;-50
2021/12/14 08:00:29;;;;;;;21.73;15.57;;;8.80;88.40;;;;;;4986517;28;20470;-50
2021/12/14 08:02:58;;;;;;;27.50;17.87;;;8.80;88.30;;;;;;4980186;28;20843;-50
2021/12/14 08:05:27;;;;;;;18.80;14.83;;;8.80;88.30;;;;;;4997801;28;20460;-51
2021/12/14 08:07:59;;;;;;;26.20;17.90;;;8.80;88.20;;;;;;5002745;28;20486;-51
2021/12/14 08:10:30;;;;;;;21.60;16.43;;;8.80;88.20;;;;;;5001177;28;20468;-51
2021/12/14 08:13:02;;;;;;;25.83;17.00;;;8.80;88.20;;;;;;4989690;28;20489;-51
2021/12/14 08:15:29;;;;;;;18.23;14.07;;;8.80;88.00;;;;;;5002527;28;21008;-51
2021/12/14 08:18:16;;;;;;;23.23;16.97;;;8.80;88.10;;;;;;4998036;28;20448;-51
2021/12/14 08:20:46;;;;;;;21.30;15.17;;;8.90;87.40;;;;;;5001105;28;20452;-51
2021/12/14 08:23:27;;;;;;;20.73;16.33;;;8.90;87.70;;;;;;4999433;28;20460;-50
2021/12/14 08:26:00;;;;;;;19.93;14.97;;;8.90;87.50;;;;;;4999325;28;20479;-50
2021/12/14 08:28:27;;;;;;;19.47;14.40;;;8.90;87.30;;;;;;4997001;28;20500;-50
2021/12/14 08:31:09;;;;;;;22.50;15.00;;;8.90;87.00;;;;;;4988178;28;20851;-50
2021/12/14 08:33:36;;;;;;;19.80;16.07;;;8.90;87.00;;;;;;4980142;28;20805;-50
2021/12/14 08:36:05;;;;;;;21.43;15.37;;;8.90;87.40;;;;;;4998805;28;20471;-50
2021/12/14 08:38:35;;;;;;;18.47;14.30;;;8.90;87.60;;;;;;4997990;28;20457;-50
2021/12/14 08:41:20;;;;;;;24.70;17.23;;;8.90;87.40;;;;;;4980484;28;20465;-50
2021/12/14 08:43:50;;;;;;;20.70;16.03;;;8.90;87.60;;;;;;4984847;28;20543;-50
2021/12/14 08:46:26;;;;;;;19.90;14.77;;;8.90;87.80;;;;;;4987916;28;20527;-51
2021/12/14 08:48:57;;;;;;;22.10;16.50;;;8.80;87.80;;;;;;4986332;28;20532;-51
2021/12/14 08:51:31;;;;;;;21.73;15.50;;;8.80;87.80;;;;;;4999526;28;20476;-50
2021/12/14 08:54:29;;;;;;;22.30;15.90;;;8.80;88.00;;;;;;5003100;28;20510;-51
2021/12/14 08:57:08;;;;;;;22.00;15.10;;;8.80;88.10;;;;;;4999367;28;20455;-50
2021/12/14 08:59:38;;;;;;;21.40;14.57;;;8.90;88.20;;;;;;4981451;28;20484;-50
2021/12/14 09:02:08;;;;;;;18.57;14.03;;;8.90;87.50;;;;;;4983169;28;20468;-50
2021/12/14 09:04:43;;;;;;;20.63;14.67;;;8.90;87.30;;;;;;4988474;28;20459;-50
2021/12/14 09:07:17;;;;;;;19.70;14.20;;;8.90;87.60;;;;;;4981099;28;20471;-50
2021/12/14 09:09:44;;;;;;;19.27;13.97;;;9.00;87.60;;;;;;4986588;28;20468;-50
2021/12/14 09:12:25;;;;;;;17.47;13.07;;;9.00;87.50;;;;;;4979578;28;20492;-51
2021/12/14 09:14:57;;;;;;;19.50;13.33;;;9.00;87.60;;;;;;5004139;28;20824;-50
2021/12/14 09:17:24;;;;;;;18.37;12.40;;;9.00;87.70;;;;;;5000822;28;20577;-50
2021/12/14 09:20:14;;;;;;;16.30;12.10;;;9.10;87.60;;;;;;4999569;28;20846;-50
2021/12/14 09:22:45;;;;;;;18.40;11.80;;;9.10;87.50;;;;;;4990296;28;20487;-50
2021/12/14 09:25:18;;;;;;;21.60;12.07;;;9.10;87.30;;;;;;4983609;28;20452;-51
2021/12/14 09:27:46;;;;;;;16.03;11.00;;;9.10;87.30;;;;;;4985154;28;20475;-51
2021/12/14 09:30:16;;;;;;;18.50;13.77;;;9.10;87.50;;;;;;4986890;28;20475;-50
2021/12/14 09:32:43;;;;;;;20.67;14.37;;;9.10;87.50;;;;;;5001977;28;20480;-50
2021/12/14 09:35:16;;;;;;;17.03;12.10;;;9.20;87.40;;;;;;5000874;28;20829;-50
2021/12/14 09:37:49;;;;;;;15.73;12.93;;;9.20;87.40;;;;;;5001660;28;20973;-50
2021/12/14 09:40:21;;;;;;;16.50;12.73;;;9.20;87.60;;;;;;4983703;28;20448;-51
2021/12/14 09:42:49;;;;;;;25.03;13.23;;;9.20;87.50;;;;;;5000180;28;20481;-50
2021/12/14 09:45:20;;;;;;;19.70;12.93;;;9.20;87.40;;;;;;5002604;28;20466;-51
2021/12/14 09:47:48;;;;;;;18.63;14.10;;;9.20;87.60;;;;;;4988699;28;21044;-51
2021/12/14 09:50:25;;;;;;;17.43;13.47;;;9.20;87.50;;;;;;5003482;28;21110;-50
2021/12/14 09:52:53;;;;;;;17.80;13.10;;;9.20;87.50;;;;;;4988802;28;20615;-50
2021/12/14 09:55:27;;;;;;;15.47;12.60;;;9.30;87.40;;;;;;5003470;28;20468;-51
2021/12/14 09:57:57;;;;;;;18.93;13.93;;;9.30;87.60;;;;;;5002947;28;20461;-51
2021/12/14 10:00:53;;;;;;;19.37;13.33;;;9.30;87.60;;;;;;4988249;28;20460;-51
2021/12/14 10:03:20;;;;;;;17.93;13.50;;;9.40;87.70;;;;;;5002044;28;20468;-50
2021/12/14 10:05:59;;;;;;;19.90;14.17;;;9.40;87.30;;;;;;5002114;28;20457;-51
2021/12/14 10:08:33;;;;;;;16.90;12.93;;;9.40;87.40;;;;;;5002908;28;21043;-51
2021/12/14 10:11:48;;;;;;;17.10;12.27;;;9.50;87.30;;;;;;5000898;28;20839;-50
2021/12/14 10:14:19;;;;;;;18.10;12.27;;;9.40;87.50;;;;;;5004054;28;20501;-51
2021/12/14 10:16:46;;;;;;;19.00;12.33;;;9.40;87.50;;;;;;4998076;28;20814;-51
2021/12/14 10:19:17;;;;;;;17.13;12.87;;;9.40;87.50;;;;;;5001181;28;20794;-51
2021/12/14 10:21:55;;;;;;;17.13;12.90;;;9.40;87.70;;;;;;4987106;28;20922;-51
2021/12/14 10:24:22;;;;;;;19.03;12.53;;;9.40;87.70;;;;;;5002403;28;20733;-50
2021/12/14 10:27:06;;;;;;;21.33;13.43;;;9.40;87.70;;;;;;5006079;28;20459;-50
2021/12/14 10:29:33;;;;;;;23.20;14.10;;;9.40;87.70;;;;;;5003449;28;20459;-51
2021/12/14 10:32:08;;;;;;;16.17;11.70;;;9.40;87.70;;;;;;5000276;28;20800;-50
2021/12/14 10:34:41;;;;;;;18.80;12.87;;;9.40;87.90;;;;;;4990907;28;20547;-50
2021/12/14 10:37:21;;;;;;;17.13;11.27;;;9.40;87.90;;;;;;5000996;28;20460;-51
2021/12/14 10:43:22;;;;;;;17.13;12.33;;;9.40;88.20;;;;;;5002982;28;20571;-51
2021/12/14 10:45:25;;;;;;;17.40;11.40;;;9.40;88.40;;;;;;4988997;28;20453;-51
2021/12/14 10:47:53;;;;;;;14.13;11.67;;;9.40;88.40;;;;;;5003012;28;20465;-51
2021/12/14 10:50:25;;;;;;;17.03;12.10;;;9.40;88.30;;;;;;5001664;28;20461;-51
2021/12/14 10:52:52;;;;;;;16.70;11.27;;;9.40;88.30;;;;;;4988014;28;20500;-51
2021/12/14 10:55:35;;;;;;;15.63;9.90;;;9.40;88.20;;;;;;5001095;28;20732;-51
2021/12/14 10:58:04;;;;;;;14.23;11.10;;;9.40;87.90;;;;;;4997767;28;20472;-50
2021/12/14 11:00:54;;;;;;;18.03;11.53;;;9.40;87.90;;;;;;4996402;28;20457;-51
2021/12/14 11:03:29;;;;;;;16.50;11.27;;;9.40;88.00;;;;;;4984075;28;20461;-50
2021/12/14 11:06:03;;;;;;;15.10;10.70;;;9.40;88.10;;;;;;4984836;28;20818;-51
2021/12/14 11:08:44;;;;;;;19.57;12.03;;;9.40;88.20;;;;;;4987501;28;20648;-51
2021/12/14 11:11:28;;;;;;;15.17;11.40;;;9.50;88.10;;;;;;4982151;28;20476;-51
2021/12/14 11:14:01;;;;;;;17.80;12.33;;;9.50;88.00;;;;;;5001734;28;20810;-51
2021/12/14 11:19:39;;;;;;;19.10;12.03;;;9.60;87.90;;;;;;4999361;28;20778;-51
2021/12/14 11:22:21;;;;;;;21.60;12.80;;;9.60;87.20;;;;;;5001578;28;20535;-51
2021/12/14 11:24:54;;;;;;;16.53;11.20;;;9.60;87.40;;;;;;5003294;28;20456;-51
2021/12/14 11:27:28;;;;;;;14.87;10.10;;;9.60;87.50;;;;;;5001622;28;20455;-51
2021/12/14 11:30:18;;;;;;;15.97;10.50;;;9.70;87.50;;;;;;4997576;28;20488;-51
2021/12/14 11:33:05;;;;;;;15.47;10.40;;;9.70;87.20;;;;;;5000703;28;20855;-51
2021/12/14 11:35:35;;;;;;;14.50;9.10;;;9.70;87.20;;;;;;5000320;28;20470;-52
2021/12/14 11:38:10;;;;;;;12.90;10.63;;;9.70;87.00;;;;;;5004336;28;20460;-50
2021/12/14 11:40:37;;;;;;;14.63;10.03;;;9.60;87.10;;;;;;4985004;28;20473;-50
2021/12/14 11:43:17;;;;;;;11.53;9.13;;;9.60;86.90;;;;;;5002309;28;20464;-50
2021/12/14 11:45:47;;;;;;;11.90;9.40;;;9.60;86.80;;;;;;5000102;28;20472;-50
2021/12/14 11:48:15;;;;;;;11.43;9.17;;;9.60;86.70;;;;;;4984169;28;20470;-50
2021/12/14 11:50:47;;;;;;;12.80;9.30;;;9.60;86.70;;;;;;4995357;28;20467;-51
2021/12/14 11:53:18;;;;;;;15.53;9.37;;;9.70;86.60;;;;;;4998522;28;21080;-50
2021/12/14 11:56:03;;;;;;;14.67;10.83;;;9.70;86.70;;;;;;4998673;28;20510;-51
2021/12/14 11:58:43;;;;;;;12.77;8.87;;;9.60;86.50;;;;;;4997421;28;20744;-51
2021/12/14 12:01:20;;;;;;;14.27;10.30;;;9.60;86.50;;;;;;4998856;28;20523;-50
2021/12/14 12:03:59;;;;;;;10.03;8.10;;;9.70;86.20;;;;;;4997644;28;20868;-50
2021/12/14 12:12:02;;;;;;;12.50;8.87;;;9.70;85.70;;;;;;4994131;28;20531;-51
2021/12/14 12:14:56;;;;;;;13.20;8.77;;;9.70;85.90;;;;;;4977512;28;20511;-51
2021/12/14 12:17:37;;;;;;;13.00;8.93;;;9.70;85.80;;;;;;4995292;28;20463;-51
2021/12/14 12:20:16;;;;;;;16.63;9.13;;;9.60;85.80;;;;;;5000903;28;20482;-52
2021/12/14 12:22:43;;;;;;;12.43;8.47;;;9.60;86.00;;;;;;4998299;28;20499;-52
2021/12/14 12:25:19;;;;;;;15.27;10.57;;;9.60;86.10;;;;;;5000887;28;20574;-52
2021/12/14 12:27:47;;;;;;;14.00;9.20;;;9.60;86.10;;;;;;4996643;28;20872;-51
2021/12/14 12:30:44;;;;;;;17.20;10.20;;;9.60;86.10;;;;;;4999505;28;20448;-52
2021/12/14 12:33:17;;;;;;;13.67;8.93;;;9.50;86.10;;;;;;4981431;28;20496;-52
2021/12/14 12:35:54;;;;;;;14.00;9.27;;;9.50;86.10;;;;;;4997041;28;20457;-50
2021/12/14 12:38:31;;;;;;;15.63;10.07;;;9.60;86.10;;;;;;4987343;28;20538;-49
2021/12/14 12:41:10;;;;;;;15.07;10.30;;;9.60;86.00;;;;;;4999393;28;20530;-50
2021/12/14 12:43:51;;;;;;;16.63;10.60;;;9.60;86.20;;;;;;4999508;28;20527;-51
2021/12/14 12:46:35;;;;;;;11.80;9.87;;;9.50;86.30;;;;;;4996961;28;20822;-51
2021/12/14 12:49:08;;;;;;;14.30;9.57;;;9.60;86.40;;;;;;4987698;28;20460;-51
2021/12/14 12:51:58;;;;;;;15.93;8.97;;;9.60;86.30;;;;;;5001481;28;20491;-50
2021/12/14 12:54:37;;;;;;;20.00;10.07;;;9.70;86.10;;;;;;4950357;28;20504;-50
2021/12/14 12:57:13;;;;;;;12.70;9.30;;;9.70;86.00;;;;;;5000694;28;20546;-50
2021/12/14 12:59:54;;;;;;;15.00;9.17;;;9.60;86.10;;;;;;4999832;28;20475;-50
2021/12/14 13:02:30;;;;;;;14.03;9.93;;;9.70;85.60;;;;;;5005432;28;20500;-50
2021/12/14 13:05:18;;;;;;;10.50;8.27;;;9.70;85.50;;;;;;5001159;28;20475;-50
2021/12/14 13:08:04;;;;;;;12.33;8.07;;;9.70;85.50;;;;;;5001809;28;20470;-50
2021/12/14 13:10:34;;;;;;;11.13;8.93;;;9.70;85.20;;;;;;5001809;28;20857;-52
2021/12/14 13:13:19;;;;;;;15.30;8.83;;;9.60;85.10;;;;;;5001408;28;21124;-52
2021/12/14 13:15:49;;;;;;;10.87;7.97;;;9.60;85.10;;;;;;5004863;28;20452;-52
2021/12/14 13:18:21;;;;;;;10.60;7.30;;;9.60;85.20;;;;;;5005316;28;20818;-52
2021/12/14 13:21:10;;;;;;;13.13;8.20;;;9.60;85.00;;;;;;5004741;28;20531;-51
2021/12/14 13:23:43;;;;;;;9.07;5.63;;;9.70;84.70;;;;;;5003799;28;21067;-50
2021/12/14 13:26:44;;;;;;;6.73;5.83;;;9.60;84.80;;;;;;4999038;28;20493;-50
2021/12/14 13:29:11;;;;;;;6.77;4.67;;;9.70;84.40;;;;;;4985308;28;21027;-50
2021/12/14 13:31:49;;;;;;;6.23;5.43;;;9.70;84.00;;;;;;5004243;28;20862;-51
2021/12/14 13:34:36;;;;;;;7.93;5.27;;;9.70;84.00;;;;;;5003746;28;22939;-50
2021/12/14 13:37:05;;;;;;;9.83;5.40;;;9.70;83.90;;;;;;4998430;28;20466;-51
2021/12/14 13:39:34;;;;;;;6.43;4.90;;;9.70;83.80;;;;;;4986342;28;20945;-51
2021/12/14 13:42:12;;;;;;;6.10;5.17;;;9.70;83.90;;;;;;5001830;28;20456;-51
2021/12/14 13:44:51;;;;;;;7.00;5.00;;;9.70;83.80;;;;;;5001294;28;20482;-51
2021/12/14 13:47:22;;;;;;;5.03;4.00;;;9.60;83.70;;;;;;4984694;28;20466;-51
2021/12/14 13:49:50;;;;;;;5.50;3.90;;;9.70;83.50;;;;;;4985393;28;20449;-51
2021/12/14 13:52:18;;;;;;;4.90;3.37;;;9.60;83.40;;;;;;5002776;28;20789;-50
2021/12/14 13:55:21;;;;;;;3.97;3.00;;;9.60;83.40;;;;;;4981136;28;20496;-50